Time;durP1;ratioP1;P1;durP2;ratioP2;P2;SDS_P1;SDS_P2;PMS_P1;PMS_P2;Temp;Humidity;BMP_temperature;BMP_pressure;BME280_temperature;BME280_humidity;BME280_pressure;Samples;Min_cycle;Max_cycle;Signal;HPM_P1;HPM_P2
2021/08/11 00:00:33;;;;;;;5.88;3.40;;;;;;;17.91;75.30;100746.06;4964851;28;20146;-76
2021/08/11 00:02:59;;;;;;;7.25;4.13;;;;;;;17.89;75.24;100747.03;4962475;28;20039;-76
2021/08/11 00:05:25;;;;;;;76.40;8.95;;;;;;;17.85;75.33;100740.94;4963567;28;20117;-76
2021/08/11 00:07:50;;;;;;;5.95;3.30;;;;;;;17.82;75.32;100746.38;4964910;28;20047;-76
2021/08/11 00:10:15;;;;;;;7.53;3.80;;;;;;;17.78;75.72;100750.00;4966168;28;20046;-76
2021/08/11 00:12:41;;;;;;;70.32;14.02;;;;;;;17.64;76.58;100749.59;4945837;28;20039;-76
2021/08/11 00:15:07;;;;;;;7.72;3.33;;;;;;;17.58;76.22;100761.34;4964485;28;20133;-76
2021/08/11 00:17:33;;;;;;;6.95;3.40;;;;;;;17.50;76.52;100758.91;4963439;28;20046;-76
2021/08/11 00:19:58;;;;;;;5.57;3.20;;;;;;;17.38;77.41;100767.28;4944655;28;20398;-77
2021/08/11 00:22:23;;;;;;;6.72;4.10;;;;;;;17.28;77.48;100781.81;4963559;28;20105;-76
2021/08/11 00:24:49;;;;;;;5.60;3.72;;;;;;;17.15;77.96;100775.97;4963548;28;20063;-76
2021/08/11 00:27:14;;;;;;;5.15;3.20;;;;;;;17.06;78.40;100778.94;4962233;28;20049;-77
2021/08/11 00:29:39;;;;;;;7.45;4.00;;;;;;;16.97;79.19;100793.38;4946876;28;20042;-76
2021/08/11 00:32:05;;;;;;;5.85;3.38;;;;;;;16.92;79.35;100789.97;4946599;28;20038;-76
2021/08/11 00:34:31;;;;;;;9.85;4.00;;;;;;;16.84;80.11;100789.31;4962076;28;20141;-76
2021/08/11 00:36:57;;;;;;;8.52;3.30;;;;;;;16.79;79.90;100789.47;4946044;28;20035;-76
2021/08/11 00:39:23;;;;;;;5.70;3.53;;;;;;;16.79;80.09;100786.78;4947142;28;20094;-76
2021/08/11 00:41:49;;;;;;;6.57;3.80;;;;;;;16.78;81.03;100793.03;4941765;29;20451;-76
2021/08/11 00:44:17;;;;;;;6.72;4.10;;;;;;;16.74;81.51;100793.09;4962530;28;20031;-76
2021/08/11 00:46:45;;;;;;;6.88;3.97;;;;;;;16.72;81.28;100792.31;4946404;28;20119;-76
2021/08/11 00:49:16;;;;;;;5.97;3.97;;;;;;;16.73;81.50;100794.03;4945031;28;20686;-76
2021/08/11 00:51:44;;;;;;;9.65;4.82;;;;;;;16.71;81.87;100801.19;4944567;28;20038;-76
2021/08/11 00:56:55;;;;;;;8.98;4.28;;;;;;;16.66;81.83;100793.31;5262226;22;20116;-83
2021/08/11 00:59:23;;;;;;;7.20;4.30;;;;;;;16.67;82.00;100805.75;4985640;28;20026;-83
2021/08/11 01:01:52;;;;;;;10.13;4.78;;;;;;;16.63;82.84;100812.06;4974433;28;20046;-83
2021/08/11 01:04:19;;;;;;;6.78;4.10;;;;;;;16.61;82.88;100814.78;4983826;28;20737;-83
2021/08/11 01:06:45;;;;;;;7.88;4.53;;;;;;;16.57;83.58;100807.78;4996010;28;20042;-83
2021/08/11 01:09:13;;;;;;;8.15;4.50;;;;;;;16.55;83.91;100806.94;4988853;22;20041;-75
2021/08/11 01:11:47;;;;;;;8.35;4.40;;;;;;;16.59;84.26;100813.06;4968634;28;20042;-75
2021/08/11 01:14:14;;;;;;;7.47;4.60;;;;;;;16.59;84.48;100813.94;4982892;28;20106;-76
2021/08/11 01:16:41;;;;;;;7.50;4.25;;;;;;;16.61;84.10;100817.44;4966442;28;20042;-76
2021/08/11 01:19:07;;;;;;;6.82;4.53;;;;;;;16.61;84.02;100822.78;4982881;28;20031;-76
2021/08/11 01:21:51;;;;;;;9.60;4.93;;;;;;;16.64;84.73;100822.69;4967102;28;20038;-76
2021/08/11 01:24:38;;;;;;;7.78;4.90;;;;;;;16.63;84.70;100823.59;4946447;28;20034;-76
2021/08/11 01:27:28;;;;;;;7.00;4.93;;;;;;;16.65;85.07;100829.75;4982160;28;20116;-75
2021/08/11 01:30:16;;;;;;;9.98;4.72;;;;;;;16.65;84.45;100831.56;4961870;28;20035;-75
2021/08/11 01:32:47;;;;;;;7.55;5.05;;;;;;;16.62;85.13;100834.31;4979494;28;20046;-75
2021/08/11 01:35:22;;;;;;;6.95;5.00;;;;;;;16.60;85.13;100833.47;4967107;28;20049;-75
2021/08/11 01:37:53;;;;;;;9.90;5.72;;;;;;;16.59;84.66;100835.25;4967901;28;20126;-75
2021/08/11 01:40:26;;;;;;;8.48;4.97;;;;;;;16.55;84.79;100828.25;4980734;28;20133;-75
2021/08/11 01:42:54;;;;;;;9.13;5.15;;;;;;;16.51;84.43;100833.72;4984888;28;20043;-75
2021/08/11 01:45:24;;;;;;;7.88;5.72;;;;;;;16.45;84.74;100832.06;4968474;28;20046;-75
2021/08/11 01:47:58;;;;;;;9.00;5.47;;;;;;;16.38;85.48;100838.47;4947999;28;20063;-76
2021/08/11 01:50:28;;;;;;;8.90;5.43;;;;;;;16.34;86.07;100844.78;4970601;28;20034;-76
2021/08/11 01:52:55;;;;;;;8.82;5.80;;;;;;;16.26;86.17;100841.44;4979761;28;20089;-76
2021/08/11 01:55:21;;;;;;;9.68;6.88;;;;;;;16.18;86.92;100845.16;4967406;28;20039;-76
2021/08/11 01:57:51;;;;;;;7.35;5.90;;;;;;;16.16;87.27;100841.66;4964904;28;20082;-76
2021/08/11 02:00:23;;;;;;;7.60;5.40;;;;;;;16.10;87.33;100841.81;4967358;28;20039;-76
2021/08/11 02:02:50;;;;;;;9.07;5.45;;;;;;;16.09;87.00;100847.19;4953166;28;20181;-76
2021/08/11 02:05:23;;;;;;;;;;;;;;;16.01;88.11;100847.38;4967100;28;20039;-76
2021/08/11 02:07:49;;;;;;;9.82;6.45;;;;;;;16.00;87.35;100849.13;4949600;28;20500;-76
2021/08/11 02:10:18;;;;;;;10.75;6.28;;;;;;;15.98;88.03;100842.09;4984563;28;20085;-76
2021/08/11 02:12:45;;;;;;;9.38;5.95;;;;;;;16.00;87.49;100845.59;4947592;28;20162;-75
2021/08/11 02:15:11;;;;;;;9.73;6.40;;;;;;;15.99;87.49;100849.19;4969665;28;20041;-77
2021/08/11 02:17:41;;;;;;;10.02;5.95;;;;;;;15.99;87.38;100841.19;4966680;28;20484;-76
2021/08/11 02:20:08;;;;;;;8.43;5.22;;;;;;;15.98;86.94;100842.09;4967705;28;20509;-76
2021/08/11 02:22:34;;;;;;;8.80;5.90;;;;;;;15.93;87.09;100844.00;4985048;28;20026;-76
2021/08/11 02:25:06;;;;;;;11.10;6.20;;;;;;;15.89;87.01;100845.84;4968786;28;20031;-77
2021/08/11 02:27:36;;;;;;;8.40;6.38;;;;;;;15.85;87.24;100841.53;4966431;28;20124;-76
2021/08/11 02:30:13;;;;;;;10.00;7.22;;;;;;;15.77;87.98;100839.03;4967740;28;20407;-76
2021/08/11 02:32:48;;;;;;;8.40;6.13;;;;;;;15.74;87.51;100839.06;4973917;28;20030;-76
2021/08/11 02:35:19;;;;;;;8.60;6.45;;;;;;;15.74;87.48;100848.84;4953085;28;20060;-76
2021/08/11 02:38:16;;;;;;;9.88;5.97;;;;;;;15.64;88.14;100840.19;4966855;28;20031;-75
2021/08/11 02:41:05;;;;;;;10.20;5.63;;;;;;;15.62;88.48;100846.44;4983614;28;20042;-76
2021/08/11 02:43:36;;;;;;;10.45;6.00;;;;;;;15.61;88.28;100844.69;4954817;28;20034;-76
2021/08/11 02:46:13;;;;;;;11.57;7.28;;;;;;;15.54;88.70;100846.63;4964856;28;20042;-75
2021/08/11 02:48:40;;;;;;;11.48;7.47;;;;;;;15.51;88.94;100846.66;4966264;28;20089;-76
2021/08/11 02:51:08;;;;;;;10.65;6.97;;;;;;;15.50;88.69;100856.44;4979895;28;20093;-75
2021/08/11 02:53:36;;;;;;;8.50;6.25;;;;;;;15.51;88.83;100854.63;4966670;28;20056;-75
2021/08/11 02:56:02;;;;;;;10.13;5.72;;;;;;;15.50;88.52;100866.19;4946586;28;20171;-76
2021/08/11 02:58:31;;;;;;;12.80;7.78;;;;;;;15.47;89.13;100869.78;4969176;28;20034;-76
2021/08/11 03:00:58;;;;;;;14.63;7.38;;;;;;;15.44;89.10;100866.34;4964838;28;20042;-75
2021/08/11 03:03:24;;;;;;;10.38;6.40;;;;;;;15.46;88.82;100869.84;4967671;28;20011;-75
2021/08/11 03:05:50;;;;;;;11.48;7.35;;;;;;;15.43;89.21;100869.88;4970540;28;20097;-75
2021/08/11 03:08:17;;;;;;;12.35;7.18;;;;;;;15.43;88.89;100864.56;4965800;28;20026;-75
2021/08/11 03:10:43;;;;;;;9.05;6.65;;;;;;;15.43;88.46;100869.88;4967798;28;20034;-75
2021/08/11 03:13:13;;;;;;;12.25;7.22;;;;;;;15.47;88.56;100863.59;4960081;28;20022;-75
2021/08/11 03:15:44;;;;;;;;;;;;;;;15.41;89.05;100877.03;4965564;28;20035;-76
2021/08/11 03:18:10;;;;;;;9.80;5.50;;;;;;;15.40;88.24;100869.94;4971010;28;19918;-76
2021/08/11 03:20:39;;;;;;;9.65;6.05;;;;;;;15.36;88.19;100870.94;4969628;28;20452;-76
2021/08/11 03:23:06;;;;;;;13.20;6.97;;;;;;;15.30;88.42;100870.16;4967089;28;20034;-75
2021/08/11 03:25:35;;;;;;;15.15;7.28;;;;;;;15.27;88.15;100867.56;4963246;28;20058;-75
2021/08/11 03:28:01;;;;;;;11.30;6.55;;;;;;;15.27;87.84;100870.22;4957817;28;20085;-75
2021/08/11 03:30:29;;;;;;;10.48;6.57;;;;;;;15.24;88.13;100864.94;4968239;28;20038;-75
2021/08/11 03:32:55;;;;;;;10.02;6.38;;;;;;;15.24;88.44;100867.59;4982736;28;20035;-75
2021/08/11 03:35:22;;;;;;;9.20;6.47;;;;;;;15.20;88.10;100863.28;4961237;28;20026;-76
2021/08/11 03:37:48;;;;;;;11.02;6.38;;;;;;;15.19;88.71;100866.81;4985955;28;20045;-75
2021/08/11 03:40:15;;;;;;;13.35;6.75;;;;;;;15.18;88.31;100872.19;4954303;28;20034;-75
2021/08/11 03:42:41;;;;;;;10.60;5.43;;;;;;;15.16;88.42;100874.84;4966040;28;20046;-75
2021/08/11 03:45:09;;;;;;;9.52;6.60;;;;;;;15.19;88.44;100874.78;4968435;28;20038;-75
2021/08/11 03:47:39;;;;;;;10.45;5.75;;;;;;;15.21;88.14;100874.78;4983758;28;20038;-75
2021/08/11 03:50:05;;;;;;;11.43;6.10;;;;;;;15.25;87.97;100882.66;4971042;28;20054;-75
2021/08/11 03:52:31;;;;;;;10.68;6.07;;;;;;;15.26;87.88;100873.78;4968529;28;20582;-75
2021/08/11 03:54:57;;;;;;;11.25;6.80;;;;;;;15.26;87.72;100873.78;4936196;28;20127;-76
2021/08/11 03:57:22;;;;;;;8.20;5.60;;;;;;;15.25;87.29;100880.00;4952698;28;20035;-75
2021/08/11 03:59:47;;;;;;;8.35;5.32;;;;;;;15.22;87.49;100885.41;4972160;28;20088;-75
2021/08/11 04:02:13;;;;;;;9.15;5.10;;;;;;;15.17;87.77;100884.59;4945572;28;20063;-75
2021/08/11 04:04:40;;;;;;;10.65;5.85;;;;;;;15.09;87.62;100882.09;4982797;28;20051;-75
2021/08/11 04:07:05;;;;;;;9.10;5.88;;;;;;;15.07;88.00;100896.31;4982100;28;20489;-75
2021/08/11 04:09:30;;;;;;;10.00;6.32;;;;;;;15.04;88.21;100899.03;4982560;28;20022;-75
2021/08/11 04:11:55;;;;;;;6.45;4.82;;;;;;;15.00;88.28;100895.53;4983474;28;20049;-75
2021/08/11 04:14:21;;;;;;;10.63;6.10;;;;;;;15.00;88.22;100900.84;4985955;28;20428;-75
2021/08/11 04:16:46;;;;;;;8.05;5.10;;;;;;;15.03;88.07;100894.59;4981926;28;20093;-75
2021/08/11 04:19:11;;;;;;;7.63;4.68;;;;;;;15.03;88.00;100906.13;4983071;28;20054;-75
2021/08/11 04:21:37;;;;;;;8.65;4.70;;;;;;;15.05;88.31;100900.78;4978295;28;20508;-75
2021/08/11 04:24:03;;;;;;;9.95;5.57;;;;;;;15.00;87.93;100898.19;4986153;28;20042;-76
2021/08/11 04:26:28;;;;;;;7.93;5.30;;;;;;;15.01;88.15;100907.03;4984177;28;20038;-75
2021/08/11 04:28:53;;;;;;;7.53;4.60;;;;;;;15.02;87.95;100901.72;4970991;28;20552;-75
2021/08/11 04:31:18;;;;;;;7.20;4.60;;;;;;;15.04;87.47;100907.00;4983668;28;20463;-75
2021/08/11 04:33:44;;;;;;;7.63;4.55;;;;;;;15.09;87.51;100911.34;4983739;28;20046;-75
2021/08/11 04:36:09;;;;;;;9.50;6.10;;;;;;;15.13;87.71;100920.13;4981472;28;20038;-75
2021/08/11 04:38:34;;;;;;;10.55;5.15;;;;;;;15.19;87.52;100913.81;4981775;28;20424;-76
2021/08/11 04:41:00;;;;;;;6.82;4.07;;;;;;;15.23;87.03;100918.16;4970968;28;20046;-75
2021/08/11 04:43:25;;;;;;;7.38;4.93;;;;;;;15.28;86.94;100922.50;4982958;28;20035;-75
2021/08/11 04:45:50;;;;;;;9.90;5.03;;;;;;;15.30;86.56;100926.00;4985196;28;20078;-75
2021/08/11 04:48:16;;;;;;;8.65;4.65;;;;;;;15.34;86.91;100925.03;4977953;28;20086;-75
2021/08/11 04:50:41;;;;;;;8.60;5.20;;;;;;;15.41;85.97;100924.91;4979449;28;20043;-75
2021/08/11 04:53:06;;;;;;;8.90;5.45;;;;;;;15.45;85.92;100929.25;4986076;28;20045;-74
2021/08/11 04:55:32;;;;;;;7.57;4.40;;;;;;;15.51;85.43;100932.69;4981615;28;20049;-75
2021/08/11 04:57:57;;;;;;;10.07;6.90;;;;;;;15.57;85.81;100932.53;4981047;28;20030;-75
2021/08/11 05:00:22;;;;;;;8.30;5.82;;;;;;;15.64;85.84;100924.44;4983332;28;20049;-75
2021/08/11 05:02:48;;;;;;;8.27;4.22;;;;;;;15.69;85.59;100925.25;4984982;28;20044;-75
2021/08/11 05:05:13;;;;;;;7.43;4.53;;;;;;;15.76;85.26;100927.75;4982705;28;20053;-76
2021/08/11 05:07:38;;;;;;;9.57;4.57;;;;;;;15.83;85.16;100924.97;4977171;28;20041;-75
2021/08/11 05:10:04;;;;;;;6.63;4.47;;;;;;;15.86;84.84;100927.56;4987557;28;20042;-75
2021/08/11 05:12:30;;;;;;;8.43;5.00;;;;;;;15.92;84.68;100927.41;4987941;28;20480;-75
2021/08/11 05:14:56;;;;;;;9.07;4.80;;;;;;;15.98;84.69;100928.19;4985615;28;20058;-75
2021/08/11 05:17:22;;;;;;;6.55;4.25;;;;;;;16.07;84.48;100924.41;4984307;28;20049;-75
2021/08/11 05:19:52;;;;;;;6.97;4.80;;;;;;;16.15;84.02;100925.13;4983277;28;20586;-75
2021/08/11 05:22:18;;;;;;;7.65;4.45;;;;;;;16.20;84.17;100925.88;4982685;28;20038;-75
2021/08/11 05:24:44;;;;;;;6.60;4.53;;;;;;;16.27;84.45;100929.31;4983148;28;20057;-75
2021/08/11 05:27:10;;;;;;;7.53;5.13;;;;;;;16.30;84.30;100937.22;4965676;28;20043;-75
2021/08/11 05:29:36;;;;;;;7.53;5.10;;;;;;;16.36;84.20;100939.72;4984500;28;20034;-75
2021/08/11 05:32:01;;;;;;;8.13;5.13;;;;;;;16.41;84.05;100939.63;4983358;28;20046;-75
2021/08/11 05:34:26;;;;;;;7.35;4.43;;;;;;;16.47;83.91;100941.25;4981581;28;20380;-75
2021/08/11 05:36:52;;;;;;;9.05;4.97;;;;;;;16.52;84.25;100942.91;4981352;28;20046;-75
2021/08/11 05:39:17;;;;;;;7.78;5.00;;;;;;;16.61;84.14;100956.00;4983284;28;20046;-75
2021/08/11 05:41:42;;;;;;;8.35;4.50;;;;;;;16.64;83.81;100947.94;4981458;28;20046;-75
2021/08/11 05:44:08;;;;;;;7.35;4.88;;;;;;;16.70;83.68;100957.56;4980978;28;20039;-75
2021/08/11 05:46:34;;;;;;;8.27;4.80;;;;;;;16.70;83.19;100954.91;4982954;28;20488;-75
2021/08/11 05:49:00;;;;;;;11.10;5.85;;;;;;;16.70;84.04;100954.03;4982180;28;20534;-75
2021/08/11 05:51:25;;;;;;;7.07;4.78;;;;;;;16.83;83.43;100964.38;4978153;28;20117;-75
2021/08/11 05:53:51;;;;;;;6.82;4.30;;;;;;;16.96;83.01;100959.59;4982431;28;20069;-76
2021/08/11 05:56:16;;;;;;;8.88;5.00;;;;;;;16.99;83.33;100950.66;4982169;28;20129;-74
2021/08/11 05:58:41;;;;;;;7.68;4.97;;;;;;;17.02;82.97;100961.22;4980764;28;20046;-75
2021/08/11 06:01:07;;;;;;;9.90;5.07;;;;;;;17.05;82.95;100958.47;4981922;28;20065;-75
2021/08/11 06:03:32;;;;;;;7.40;5.00;;;;;;;17.12;82.61;100970.75;4982721;28;20466;-75
2021/08/11 06:06:05;;;;;;;;;;;;;;;17.20;82.62;100966.09;4961561;28;20077;-75
2021/08/11 06:08:31;;;;;;;7.25;5.10;;;;;;;17.32;82.07;100978.22;4980498;28;20028;-75
2021/08/11 06:10:57;;;;;;;10.25;5.03;;;;;;;17.36;82.08;100971.88;4982455;28;20034;-76
2021/08/11 06:13:22;;;;;;;8.88;5.68;;;;;;;17.41;81.64;100980.63;4982028;28;20469;-75
2021/08/11 06:15:47;;;;;;;9.85;5.82;;;;;;;17.41;81.58;100980.63;4963031;28;20378;-75
2021/08/11 06:18:13;;;;;;;7.43;5.50;;;;;;;17.50;81.26;100980.41;4982191;28;20570;-75
2021/08/11 06:20:38;;;;;;;8.73;5.38;;;;;;;17.55;81.46;100971.38;4984238;28;20603;-75
2021/08/11 06:23:03;;;;;;;8.95;5.53;;;;;;;17.68;80.93;100980.78;4983915;28;20369;-75
2021/08/11 06:25:28;;;;;;;8.02;5.15;;;;;;;17.77;80.28;100985.88;4985189;28;20046;-75
2021/08/11 06:27:54;;;;;;;11.02;5.72;;;;;;;17.74;79.89;100985.97;4986200;28;20400;-75
2021/08/11 06:30:19;;;;;;;8.10;4.90;;;;;;;17.68;80.25;100992.38;4980190;28;20219;-76
2021/08/11 06:32:44;;;;;;;9.50;5.78;;;;;;;17.66;80.07;100987.97;4981868;28;20114;-75
2021/08/11 06:35:11;;;;;;;7.07;4.88;;;;;;;17.74;79.41;100989.50;4980798;28;20066;-75
2021/08/11 06:37:47;;;;;;;7.50;5.53;;;;;;;17.85;79.55;100991.91;4972399;28;20085;-75
2021/08/11 06:40:13;;;;;;;9.15;4.85;;;;;;;17.92;79.74;101001.50;4985911;28;20065;-75
2021/08/11 06:42:39;;;;;;;8.75;5.43;;;;;;;18.00;79.49;100997.69;4985394;28;20104;-75
2021/08/11 06:45:05;;;;;;;8.95;5.32;;;;;;;18.05;78.44;100994.00;4954620;28;20042;-75
2021/08/11 06:47:31;;;;;;;7.60;5.25;;;;;;;18.08;77.82;100996.56;4952015;28;20125;-76
2021/08/11 06:49:56;;;;;;;8.35;5.65;;;;;;;18.10;77.93;100991.16;4966532;28;20043;-76
2021/08/11 06:52:21;;;;;;;9.45;6.03;;;;;;;18.26;78.06;100997.81;4985708;28;20488;-75
2021/08/11 06:54:48;;;;;;;7.85;6.15;;;;;;;18.36;76.86;100996.59;4984280;28;20437;-75
2021/08/11 06:57:13;;;;;;;7.70;5.60;;;;;;;18.54;76.72;100988.91;4985883;28;20117;-75
2021/08/11 06:59:38;;;;;;;10.55;6.72;;;;;;;18.66;75.55;100985.88;4984574;28;20054;-75
2021/08/11 07:02:04;;;;;;;8.68;5.70;;;;;;;18.86;74.95;100987.03;4984454;28;20481;-75
2021/08/11 07:04:29;;;;;;;7.43;4.90;;;;;;;18.99;75.30;100994.63;4983247;28;20050;-76
2021/08/11 07:06:55;;;;;;;9.98;6.43;;;;;;;19.05;73.35;100997.06;4984794;28;20057;-76
2021/08/11 07:09:22;;;;;;;7.88;5.78;;;;;;;19.03;72.32;101000.72;4984680;28;20050;-76
2021/08/11 07:11:48;;;;;;;7.57;5.15;;;;;;;19.05;71.92;100997.06;4983149;28;20531;-75
2021/08/11 07:14:13;;;;;;;7.78;6.28;;;;;;;19.26;72.04;100995.47;4984265;28;20066;-75
2021/08/11 07:16:38;;;;;;;8.73;5.50;;;;;;;19.50;71.89;100995.53;4985018;28;20073;-75
2021/08/11 07:19:04;;;;;;;14.75;9.82;;;;;;;19.75;71.18;100994.66;4983449;28;20118;-76
2021/08/11 07:21:29;;;;;;;10.65;5.93;;;;;;;19.94;70.21;101001.09;4988350;28;20443;-75
2021/08/11 07:23:54;;;;;;;8.65;5.88;;;;;;;20.03;70.02;100999.84;5000778;23;20042;-83
2021/08/11 07:26:20;;;;;;;8.25;6.10;;;;;;;19.97;68.22;101009.00;4986846;28;20053;-84
2021/08/11 07:28:46;;;;;;;11.60;6.40;;;;;;;19.95;68.23;101001.97;4990826;28;20070;-83
2021/08/11 07:31:11;;;;;;;10.00;6.10;;;;;;;19.94;67.97;100998.41;4987317;28;20052;-83
2021/08/11 07:33:36;;;;;;;6.90;5.15;;;;;;;20.11;67.92;100997.75;4989765;28;20054;-84
2021/08/11 07:36:04;;;;;;;8.30;5.45;;;;;;;20.11;68.24;100995.94;4989344;28;20038;-84
2021/08/11 07:38:29;;;;;;;7.28;5.60;;;;;;;20.23;67.82;100996.44;4988859;28;20065;-83
2021/08/11 07:40:54;;;;;;;6.65;5.03;;;;;;;20.27;66.61;100990.88;4967409;28;20548;-83
2021/08/11 07:43:20;;;;;;;7.68;4.80;;;;;;;20.16;67.81;100994.91;4986252;28;20409;-83
2021/08/11 07:45:45;;;;;;;8.10;5.35;;;;;;;20.28;66.59;101000.66;4973822;28;20404;-83
2021/08/11 07:48:10;;;;;;;9.05;5.30;;;;;;;20.39;65.70;100994.88;4988074;28;20037;-83
2021/08/11 07:50:38;;;;;;;8.60;5.55;;;;;;;20.48;63.96;101001.69;4989806;28;20093;-83
2021/08/11 07:53:04;;;;;;;6.70;5.05;;;;;;;20.68;62.68;100990.19;4993672;28;20481;-83
2021/08/11 07:55:30;;;;;;;8.70;5.38;;;;;;;20.64;62.73;100992.09;4941215;28;20045;-83
2021/08/11 07:57:55;;;;;;;8.07;5.10;;;;;;;20.63;62.50;100990.38;4961968;28;20065;-84
2021/08/11 08:00:22;;;;;;;9.82;5.43;;;;;;;20.45;64.12;100997.31;4972670;28;20038;-83
2021/08/11 08:02:48;;;;;;;7.22;4.70;;;;;;;20.49;64.44;100987.34;4992467;28;20057;-84
2021/08/11 08:05:14;;;;;;;7.15;5.15;;;;;;;20.58;63.96;100987.00;4988171;28;20137;-84
2021/08/11 08:07:39;;;;;;;6.53;4.35;;;;;;;20.65;62.70;100987.66;4985072;28;20531;-83
2021/08/11 08:10:05;;;;;;;6.32;4.82;;;;;;;20.45;62.39;100991.09;4986030;28;20034;-83
2021/08/11 08:12:31;;;;;;;5.97;3.92;;;;;;;20.41;63.00;100984.09;4990054;28;20037;-84
2021/08/11 08:14:56;;;;;;;8.00;4.75;;;;;;;20.66;62.01;100992.06;4977297;28;20042;-83
2021/08/11 08:17:22;;;;;;;7.18;4.65;;;;;;;20.71;61.37;101000.78;4972594;28;20058;-84
2021/08/11 08:19:47;;;;;;;7.13;4.40;;;;;;;20.47;61.81;100997.25;4989286;28;20090;-83
2021/08/11 08:22:16;;;;;;;8.07;5.10;;;;;;;20.53;62.67;100994.31;4990095;28;20042;-83
2021/08/11 08:24:41;;;;;;;6.97;4.85;;;;;;;20.61;61.96;100992.25;4985747;28;20050;-83
2021/08/11 08:27:07;;;;;;;7.90;4.40;;;;;;;20.84;60.15;100993.13;4969481;28;20030;-83
2021/08/11 08:29:32;;;;;;;8.90;4.43;;;;;;;20.92;61.47;101005.25;4954975;28;20054;-83
2021/08/11 08:31:57;;;;;;;6.25;4.10;;;;;;;20.93;60.27;100996.31;4954316;28;20054;-84
2021/08/11 08:34:23;;;;;;;7.10;4.18;;;;;;;21.06;59.63;100998.44;4970599;28;20014;-84
2021/08/11 08:36:48;;;;;;;5.47;3.65;;;;;;;21.22;58.09;100994.16;4985278;28;20097;-84
2021/08/11 08:39:13;;;;;;;6.65;4.15;;;;;;;21.37;57.90;101001.56;4988990;28;20111;-84
2021/08/11 08:41:42;;;;;;;8.73;3.70;;;;;;;21.26;57.47;101006.53;4972242;28;20378;-84
2021/08/11 08:44:07;;;;;;;8.18;4.95;;;;;;;21.14;59.00;101007.03;4952656;28;20082;-83
2021/08/11 08:46:34;;;;;;;7.47;4.20;;;;;;;21.42;59.08;101002.25;4988496;28;20050;-84
2021/08/11 08:49:02;;;;;;;7.50;4.30;;;;;;;21.66;57.31;101005.66;4971285;28;20050;-83
2021/08/11 08:51:30;;;;;;;6.75;3.60;;;;;;;21.54;56.67;100995.50;4988426;28;20073;-84
2021/08/11 08:53:55;;;;;;;6.50;4.32;;;;;;;21.38;57.16;100995.28;4939263;28;20057;-84
2021/08/11 08:56:20;;;;;;;6.18;3.83;;;;;;;21.45;57.82;101002.13;4952580;28;20501;-84
2021/08/11 08:58:46;;;;;;;6.78;4.05;;;;;;;21.51;57.39;101005.47;4949027;29;20039;-83
2021/08/11 09:01:11;;;;;;;4.85;2.85;;;;;;;21.65;55.89;101003.06;4987611;28;20034;-84
2021/08/11 09:03:36;;;;;;;6.88;3.47;;;;;;;21.87;54.40;101002.97;4986247;28;20413;-84
2021/08/11 09:06:02;;;;;;;7.20;3.35;;;;;;;21.98;54.05;101007.84;4970406;28;20508;-83
2021/08/11 09:08:28;;;;;;;6.85;4.00;;;;;;;21.98;54.07;101005.16;4954600;28;20554;-84
2021/08/11 09:10:54;;;;;;;7.18;4.00;;;;;;;22.04;55.35;101004.88;4985408;28;20041;-84
2021/08/11 09:13:21;;;;;;;6.05;3.13;;;;;;;21.97;54.38;101004.28;4932597;28;20484;-84
2021/08/11 09:16:03;;;;;;;6.32;3.28;;;;;;;22.09;54.52;101002.84;4953349;28;20041;-84
2021/08/11 09:18:28;;;;;;;8.85;5.00;;;;;;;21.87;53.91;101002.97;4952053;28;20034;-84
2021/08/11 09:21:02;;;;;;;6.32;3.22;;;;;;;22.01;54.70;100999.66;4987371;28;20049;-84
2021/08/11 09:23:45;;;;;;;7.15;4.03;;;;;;;22.10;54.17;101001.91;4938401;28;20085;-84
2021/08/11 09:26:15;;;;;;;6.45;3.25;;;;;;;22.22;53.01;100996.00;4967118;28;20035;-84
2021/08/11 09:28:44;;;;;;;5.38;3.50;;;;;;;22.19;55.05;100998.81;4969053;28;20047;-84
2021/08/11 09:31:22;;;;;;;5.50;3.25;;;;;;;22.36;53.12;101003.41;4966658;28;20042;-84
2021/08/11 09:33:50;;;;;;;5.78;3.70;;;;;;;22.15;51.25;101004.38;4989349;28;20109;-84
2021/08/11 09:36:15;;;;;;;7.28;4.03;;;;;;;21.92;53.31;101013.50;4964839;28;20039;-84
2021/08/11 09:38:55;;;;;;;6.38;3.25;;;;;;;21.70;53.36;101011.78;4961053;28;20043;-84
2021/08/11 09:41:20;;;;;;;7.43;3.55;;;;;;;21.53;51.85;101014.34;4964927;28;20038;-84
2021/08/11 09:43:46;;;;;;;6.25;3.00;;;;;;;21.56;54.12;101015.09;4960935;28;20089;-84
2021/08/11 09:46:11;;;;;;;5.50;3.42;;;;;;;21.85;53.73;101012.91;4943554;28;20081;-84
2021/08/11 09:48:42;;;;;;;6.15;3.42;;;;;;;21.92;51.18;101010.81;4971946;28;20063;-84
2021/08/11 09:51:10;;;;;;;5.65;3.00;;;;;;;21.82;52.55;101013.94;4974353;28;20077;-84
2021/08/11 09:53:38;;;;;;;6.07;3.47;;;;;;;21.86;53.29;101012.84;4939895;28;20037;-84
2021/08/11 09:56:08;;;;;;;5.55;3.10;;;;;;;21.75;50.96;101015.16;4952249;28;20045;-84
2021/08/11 09:58:41;;;;;;;6.75;3.53;;;;;;;21.78;50.68;101009.63;4989548;28;20098;-84
2021/08/11 10:01:27;;;;;;;5.47;3.22;;;;;;;21.99;50.05;101002.41;4987913;28;20042;-82
2021/08/11 10:03:54;;;;;;;4.40;2.50;;;;;;;22.24;48.45;101012.94;4986846;28;20046;-84
2021/08/11 10:06:32;;;;;;;7.13;2.97;;;;;;;22.14;49.27;101016.97;4959467;28;20054;-83
2021/08/11 10:09:23;;;;;;;6.30;3.25;;;;;;;22.21;49.08;101013.03;4970283;28;20058;-83
2021/08/11 10:11:52;;;;;;;6.45;3.13;;;;;;;22.45;48.24;101015.50;4980302;28;20050;-82
2021/08/11 10:14:21;;;;;;;5.40;2.78;;;;;;;22.82;48.39;101009.25;4988938;28;20459;-82
2021/08/11 10:16:48;;;;;;;4.00;2.63;;;;;;;22.80;47.11;101005.75;4989688;28;20038;-84
2021/08/11 10:19:14;;;;;;;5.38;3.00;;;;;;;22.98;46.95;101012.06;4995113;28;20030;-84
2021/08/11 10:21:47;;;;;;;6.97;2.92;;;;;;;23.11;46.74;101012.31;4977552;28;20038;-80
2021/08/11 10:24:14;;;;;;;5.90;2.95;;;;;;;23.33;45.35;101015.63;4961857;28;20428;-80
2021/08/11 10:26:39;;;;;;;5.57;2.58;;;;;;;23.12;46.46;101016.75;4969034;28;20474;-81
2021/08/11 10:29:06;;;;;;;5.97;2.97;;;;;;;23.00;47.33;101023.59;4987212;28;20120;-80
2021/08/11 10:31:32;;;;;;;6.22;3.47;;;;;;;23.11;46.80;101031.16;4956003;28;20053;-80
2021/08/11 10:34:00;;;;;;;5.78;2.88;;;;;;;23.21;45.88;101029.72;4969095;28;20073;-80
2021/08/11 10:36:27;;;;;;;5.82;2.92;;;;;;;23.54;44.88;101027.13;4985652;28;20043;-80
2021/08/11 10:38:56;;;;;;;5.07;2.55;;;;;;;23.77;44.24;101025.94;4943569;28;20035;-81
2021/08/11 10:41:27;;;;;;;4.05;2.67;;;;;;;24.03;44.98;101027.22;4985242;28;20604;-80
2021/08/11 10:43:53;;;;;;;4.93;2.83;;;;;;;23.90;44.04;101025.28;4981239;28;20404;-81
2021/08/11 10:46:20;;;;;;;8.02;3.38;;;;;;;23.83;45.18;101019.34;4988702;28;20038;-81
2021/08/11 10:48:59;;;;;;;5.45;3.13;;;;;;;23.94;43.78;101030.41;4983148;28;20075;-81
2021/08/11 10:51:39;;;;;;;6.35;2.63;;;;;;;23.82;43.73;101034.66;4963509;28;20485;-81
2021/08/11 10:54:06;;;;;;;5.07;2.78;;;;;;;23.80;43.33;101019.50;4987752;28;20030;-84
2021/08/11 10:56:49;;;;;;;4.20;2.35;;;;;;;23.95;44.35;101029.47;4983510;28;20050;-83
2021/08/11 10:59:24;;;;;;;6.13;2.78;;;;;;;24.27;43.54;101019.59;4972816;28;20067;-84
2021/08/11 11:01:49;;;;;;;4.43;2.30;;;;;;;24.45;42.94;101008.78;4987639;28;20054;-84
2021/08/11 11:04:46;;;;;;;5.63;3.08;;;;;;;24.78;42.03;101005.97;4966821;28;20018;-84
2021/08/11 11:07:16;;;;;;;6.32;2.95;;;;;;;24.95;41.87;101006.84;4959938;28;20147;-84
2021/08/11 11:09:43;;;;;;;3.60;2.08;;;;;;;25.10;40.96;101014.03;4985934;28;20162;-84
2021/08/11 11:12:18;;;;;;;4.20;2.33;;;;;;;25.07;39.90;101012.38;4988545;28;20125;-84
2021/08/11 11:14:45;;;;;;;5.40;2.50;;;;;;;25.20;40.52;101014.38;4986812;28;20039;-84
2021/08/11 11:17:11;;;;;;;5.75;3.05;;;;;;;25.18;40.72;101014.47;4990426;28;20037;-84
2021/08/11 11:22:44;;;;;;;3.70;2.40;;;;;;;25.32;39.54;101009.09;4987003;28;20109;-84
2021/08/11 11:25:10;;;;;;;4.07;2.17;;;;;;;25.34;40.44;101020.69;4950857;28;20050;-84
2021/08/11 11:27:41;;;;;;;5.70;2.60;;;;;;;25.21;41.66;101006.19;4968142;28;20058;-84
2021/08/11 11:30:09;;;;;;;6.27;2.80;;;;;;;25.84;40.69;101006.88;4989816;28;20041;-84
2021/08/11 11:32:37;;;;;;;4.43;2.80;;;;;;;25.87;39.12;101004.88;4986996;28;20115;-84